sensor_id;sensor_type;location;lat;lon;timestamp;pressure;altitude;pressure_sealevel;temperature;humidity
10706;BME280;5404;42.656;23.336;2022-07-17T00:01:13;95144.75;;;22.46;100.00
10706;BME280;5404;42.656;23.336;2022-07-17T00:03:39;95140.53;;;22.49;100.00
10706;BME280;5404;42.656;23.336;2022-07-17T00:06:05;95162.31;;;22.52;100.00
10706;BME280;5404;42.656;23.336;2022-07-17T00:08:30;95159.47;;;22.45;100.00
10706;BME280;5404;42.656;23.336;2022-07-17T00:10:59;95172.41;;;22.52;100.00
10706;BME280;5404;42.656;23.336;2022-07-17T00:13:24;95166.00;;;22.41;100.00
10706;BME280;5404;42.656;23.336;2022-07-17T00:15:50;95171.84;;;22.43;100.00
10706;BME280;5404;42.656;23.336;2022-07-17T00:18:16;95169.41;;;22.38;100.00
10706;BME280;5404;42.656;23.336;2022-07-17T00:20:41;95176.38;;;22.35;100.00
10706;BME280;5404;42.656;23.336;2022-07-17T00:23:09;95175.00;;;22.26;100.00
10706;BME280;5404;42.656;23.336;2022-07-17T00:25:35;95183.22;;;22.29;100.00
10706;BME280;5404;42.656;23.336;2022-07-17T00:28:00;95176.53;;;22.23;100.00
10706;BME280;5404;42.656;23.336;2022-07-17T00:30:26;95174.09;;;22.18;100.00
10706;BME280;5404;42.656;23.336;2022-07-17T00:32:52;95176.81;;;22.18;100.00
10706;BME280;5404;42.656;23.336;2022-07-17T00:35:17;95177.94;;;22.17;100.00
10706;BME280;5404;42.656;23.336;2022-07-17T00:37:44;95162.00;;;22.16;100.00
10706;BME280;5404;42.656;23.336;2022-07-17T00:40:17;95180.34;;;22.22;100.00
10706;BME280;5404;42.656;23.336;2022-07-17T00:42:43;95177.25;;;22.20;100.00
10706;BME280;5404;42.656;23.336;2022-07-17T00:45:10;95181.94;;;22.23;100.00
10706;BME280;5404;42.656;23.336;2022-07-17T00:47:56;95182.38;;;22.25;100.00
10706;BME280;5404;42.656;23.336;2022-07-17T00:50:30;95175.78;;;22.26;100.00
10706;BME280;5404;42.656;23.336;2022-07-17T00:52:56;95181.00;;;22.16;100.00
10706;BME280;5404;42.656;23.336;2022-07-17T00:55:22;95184.16;;;22.18;100.00
10706;BME280;5404;42.656;23.336;2022-07-17T00:57:49;95171.59;;;22.10;100.00
10706;BME280;5404;42.656;23.336;2022-07-17T01:00:16;95174.31;;;22.10;100.00
10706;BME280;5404;42.656;23.336;2022-07-17T01:02:49;95184.44;;;22.13;100.00
10706;BME280;5404;42.656;23.336;2022-07-17T01:05:16;95171.47;;;22.03;100.00
10706;BME280;5404;42.656;23.336;2022-07-17T01:07:42;95190.44;;;22.03;100.00
10706;BME280;5404;42.656;23.336;2022-07-17T01:10:09;95191.56;;;22.02;100.00
10706;BME280;5404;42.656;23.336;2022-07-17T01:12:35;95200.50;;;22.02;100.00
10706;BME280;5404;42.656;23.336;2022-07-17T01:15:01;95199.78;;;22.05;100.00
10706;BME280;5404;42.656;23.336;2022-07-17T01:17:26;95194.72;;;22.04;100.00
10706;BME280;5404;42.656;23.336;2022-07-17T01:19:53;95202.03;;;22.00;100.00
10706;BME280;5404;42.656;23.336;2022-07-17T01:22:19;95196.94;;;21.98;100.00
10706;BME280;5404;42.656;23.336;2022-07-17T01:24:45;95191.09;;;21.96;100.00
10706;BME280;5404;42.656;23.336;2022-07-17T01:27:10;95189.44;;;21.91;100.00
10706;BME280;5404;42.656;23.336;2022-07-17T01:29:37;95196.81;;;21.91;100.00
10706;BME280;5404;42.656;23.336;2022-07-17T01:32:03;95183.50;;;21.86;100.00
10706;BME280;5404;42.656;23.336;2022-07-17T01:34:29;95188.94;;;21.86;100.00
10706;BME280;5404;42.656;23.336;2022-07-17T01:36:54;95190.09;;;21.85;100.00
10706;BME280;5404;42.656;23.336;2022-07-17T01:39:20;95182.59;;;21.78;100.00
10706;BME280;5404;42.656;23.336;2022-07-17T01:42:05;95169.03;;;21.63;100.00
10706;BME280;5404;42.656;23.336;2022-07-17T01:44:30;95189.13;;;21.77;100.00
10706;BME280;5404;42.656;23.336;2022-07-17T01:46:56;95188.19;;;21.70;100.00
10706;BME280;5404;42.656;23.336;2022-07-17T01:49:21;95192.19;;;21.76;100.00
10706;BME280;5404;42.656;23.336;2022-07-17T01:51:47;95177.69;;;21.68;100.00
10706;BME280;5404;42.656;23.336;2022-07-17T01:54:13;95189.47;;;21.76;100.00
10706;BME280;5404;42.656;23.336;2022-07-17T01:56:40;95185.84;;;21.68;100.00
10706;BME280;5404;42.656;23.336;2022-07-17T01:59:05;95187.78;;;21.52;100.00
10706;BME280;5404;42.656;23.336;2022-07-17T02:01:31;95211.69;;;21.31;100.00
10706;BME280;5404;42.656;23.336;2022-07-17T02:03:56;95222.19;;;21.17;100.00
10706;BME280;5404;42.656;23.336;2022-07-17T02:06:22;95222.56;;;21.00;100.00
10706;BME280;5404;42.656;23.336;2022-07-17T02:08:47;95234.41;;;20.80;100.00
10706;BME280;5404;42.656;23.336;2022-07-17T02:11:16;95233.09;;;20.74;100.00
10706;BME280;5404;42.656;23.336;2022-07-17T02:13:42;95242.00;;;20.74;100.00
10706;BME280;5404;42.656;23.336;2022-07-17T02:16:07;95230.03;;;20.60;100.00
10706;BME280;5404;42.656;23.336;2022-07-17T02:18:33;95249.22;;;20.55;100.00
10706;BME280;5404;42.656;23.336;2022-07-17T02:20:58;95237.50;;;20.51;100.00
10706;BME280;5404;42.656;23.336;2022-07-17T02:23:23;95252.44;;;20.60;100.00
10706;BME280;5404;42.656;23.336;2022-07-17T02:25:49;95269.59;;;20.64;100.00
10706;BME280;5404;42.656;23.336;2022-07-17T02:28:14;95275.69;;;20.61;100.00
10706;BME280;5404;42.656;23.336;2022-07-17T02:30:40;95256.09;;;20.52;100.00
10706;BME280;5404;42.656;23.336;2022-07-17T02:33:05;95271.56;;;20.52;100.00
10706;BME280;5404;42.656;23.336;2022-07-17T02:35:32;95274.41;;;20.43;100.00
10706;BME280;5404;42.656;23.336;2022-07-17T02:37:58;95270.19;;;20.30;100.00
10706;BME280;5404;42.656;23.336;2022-07-17T02:40:24;95258.13;;;20.28;100.00
10706;BME280;5404;42.656;23.336;2022-07-17T02:42:49;95269.03;;;20.31;100.00
10706;BME280;5404;42.656;23.336;2022-07-17T02:45:14;95278.31;;;20.30;100.00
10706;BME280;5404;42.656;23.336;2022-07-17T02:47:41;95281.72;;;20.27;100.00
10706;BME280;5404;42.656;23.336;2022-07-17T02:50:08;95291.63;;;20.23;100.00
10706;BME280;5404;42.656;23.336;2022-07-17T02:52:34;95297.50;;;20.13;100.00
10706;BME280;5404;42.656;23.336;2022-07-17T02:55:00;95295.50;;;19.98;100.00
10706;BME280;5404;42.656;23.336;2022-07-17T02:57:25;95290.34;;;19.81;100.00
10706;BME280;5404;42.656;23.336;2022-07-17T02:59:51;95316.13;;;19.91;100.00
10706;BME280;5404;42.656;23.336;2022-07-17T03:02:16;95313.78;;;19.77;100.00
10706;BME280;5404;42.656;23.336;2022-07-17T03:04:42;95311.66;;;19.70;100.00
10706;BME280;5404;42.656;23.336;2022-07-17T03:07:07;95303.78;;;19.65;100.00
10706;BME280;5404;42.656;23.336;2022-07-17T03:09:33;95301.84;;;19.78;100.00
10706;BME280;5404;42.656;23.336;2022-07-17T03:11:58;95307.13;;;19.87;100.00
10706;BME280;5404;42.656;23.336;2022-07-17T03:14:24;95316.81;;;19.88;100.00
10706;BME280;5404;42.656;23.336;2022-07-17T03:16:49;95313.78;;;19.77;100.00
10706;BME280;5404;42.656;23.336;2022-07-17T03:19:15;95314.34;;;19.83;100.00
10706;BME280;5404;42.656;23.336;2022-07-17T03:21:40;95312.88;;;19.85;100.00
10706;BME280;5404;42.656;23.336;2022-07-17T03:24:06;95309.47;;;20.00;100.00
10706;BME280;5404;42.656;23.336;2022-07-17T03:26:32;95300.44;;;20.08;100.00
10706;BME280;5404;42.656;23.336;2022-07-17T03:28:58;95297.50;;;20.13;100.00
10706;BME280;5404;42.656;23.336;2022-07-17T03:31:23;95288.03;;;20.19;100.00
10706;BME280;5404;42.656;23.336;2022-07-17T03:33:49;95290.69;;;20.31;100.00
10706;BME280;5404;42.656;23.336;2022-07-17T03:36:14;95297.94;;;20.27;100.00
10706;BME280;5404;42.656;23.336;2022-07-17T03:38:40;95281.72;;;20.27;100.00
10706;BME280;5404;42.656;23.336;2022-07-17T03:41:05;95286.63;;;20.37;100.00
10706;BME280;5404;42.656;23.336;2022-07-17T03:43:30;95290.91;;;20.38;100.00
10706;BME280;5404;42.656;23.336;2022-07-17T03:45:56;95287.69;;;20.48;100.00
10706;BME280;5404;42.656;23.336;2022-07-17T03:48:21;95285.53;;;20.54;100.00
10706;BME280;5404;42.656;23.336;2022-07-17T03:50:47;95279.72;;;20.67;100.00
10706;BME280;5404;42.656;23.336;2022-07-17T03:53:12;95274.25;;;20.79;100.00
10706;BME280;5404;42.656;23.336;2022-07-17T03:55:38;95275.06;;;20.96;100.00
10706;BME280;5404;42.656;23.336;2022-07-17T03:58:03;95279.13;;;21.02;100.00
10706;BME280;5404;42.656;23.336;2022-07-17T04:00:29;95278.88;;;21.07;100.00
10706;BME280;5404;42.656;23.336;2022-07-17T04:02:54;95314.88;;;21.07;100.00
10706;BME280;5404;42.656;23.336;2022-07-17T04:05:20;95297.31;;;21.17;100.00
10706;BME280;5404;42.656;23.336;2022-07-17T04:07:45;95307.81;;;21.34;100.00
10706;BME280;5404;42.656;23.336;2022-07-17T04:10:13;95288.94;;;21.37;100.00
10706;BME280;5404;42.656;23.336;2022-07-17T04:12:40;95309.03;;;21.52;100.00
10706;BME280;5404;42.656;23.336;2022-07-17T04:15:07;95290.84;;;21.52;100.00
10706;BME280;5404;42.656;23.336;2022-07-17T04:17:33;95282.88;;;21.59;100.00
10706;BME280;5404;42.656;23.336;2022-07-17T04:19:59;95289.75;;;21.72;100.00
10706;BME280;5404;42.656;23.336;2022-07-17T04:22:24;95282.59;;;21.64;100.00
10706;BME280;5404;42.656;23.336;2022-07-17T04:24:51;95306.47;;;21.90;100.00
10706;BME280;5404;42.656;23.336;2022-07-17T04:27:17;95310.31;;;22.05;100.00
10706;BME280;5404;42.656;23.336;2022-07-17T04:29:42;95300.97;;;22.21;100.00
10706;BME280;5404;42.656;23.336;2022-07-17T04:32:09;95306.06;;;22.42;100.00
10706;BME280;5404;42.656;23.336;2022-07-17T04:34:35;95305.97;;;22.38;100.00
10706;BME280;5404;42.656;23.336;2022-07-17T04:37:01;95305.69;;;22.43;100.00
10706;BME280;5404;42.656;23.336;2022-07-17T04:39:27;95273.38;;;22.19;100.00
10706;BME280;5404;42.656;23.336;2022-07-17T04:41:53;95303.97;;;22.35;100.00
10706;BME280;5404;42.656;23.336;2022-07-17T04:44:19;95311.03;;;22.40;100.00
10706;BME280;5404;42.656;23.336;2022-07-17T04:46:45;95310.06;;;22.48;100.00
10706;BME280;5404;42.656;23.336;2022-07-17T04:49:11;95317.81;;;22.65;100.00
10706;BME280;5404;42.656;23.336;2022-07-17T04:51:36;95310.88;;;22.67;100.00
10706;BME280;5404;42.656;23.336;2022-07-17T04:54:02;95312.00;;;22.85;100.00
10706;BME280;5404;42.656;23.336;2022-07-17T04:56:27;95313.41;;;22.98;100.00
10706;BME280;5404;42.656;23.336;2022-07-17T04:58:52;95324.81;;;23.27;100.00
10706;BME280;5404;42.656;23.336;2022-07-17T05:01:18;95318.91;;;23.44;100.00
10706;BME280;5404;42.656;23.336;2022-07-17T05:03:44;95322.47;;;23.48;100.00
10706;BME280;5404;42.656;23.336;2022-07-17T05:06:09;95320.97;;;23.50;100.00
10706;BME280;5404;42.656;23.336;2022-07-17T05:08:35;95329.19;;;23.54;100.00
10706;BME280;5404;42.656;23.336;2022-07-17T05:11:01;95333.47;;;23.55;100.00
10706;BME280;5404;42.656;23.336;2022-07-17T05:13:26;95344.28;;;23.51;100.00
10706;BME280;5404;42.656;23.336;2022-07-17T05:15:51;95339.22;;;23.50;100.00
10706;BME280;5404;42.656;23.336;2022-07-17T05:18:17;95336.44;;;23.46;100.00
10706;BME280;5404;42.656;23.336;2022-07-17T05:20:42;95330.75;;;23.55;100.00
10706;BME280;5404;42.656;23.336;2022-07-17T05:23:08;95324.66;;;23.61;100.00
10706;BME280;5404;42.656;23.336;2022-07-17T05:25:33;95331.34;;;23.67;100.00
10706;BME280;5404;42.656;23.336;2022-07-17T05:27:59;95328.69;;;23.71;100.00
10706;BME280;5404;42.656;23.336;2022-07-17T05:30:25;95338.28;;;23.61;100.00
10706;BME280;5404;42.656;23.336;2022-07-17T05:32:50;95328.50;;;23.60;99.14
10706;BME280;5404;42.656;23.336;2022-07-17T05:35:17;95342.13;;;23.60;100.00
10706;BME280;5404;42.656;23.336;2022-07-17T05:37:43;95336.06;;;23.70;100.00
10706;BME280;5404;42.656;23.336;2022-07-17T05:40:08;95343.16;;;23.75;100.00
10706;BME280;5404;42.656;23.336;2022-07-17T05:42:34;95338.41;;;23.72;100.00
10706;BME280;5404;42.656;23.336;2022-07-17T05:44:59;95342.19;;;23.64;95.83
10706;BME280;5404;42.656;23.336;2022-07-17T05:47:25;95337.28;;;23.73;98.93
10706;BME280;5404;42.656;23.336;2022-07-17T05:49:51;95337.03;;;23.81;99.18
10706;BME280;5404;42.656;23.336;2022-07-17T05:52:16;95333.75;;;23.95;100.00
10706;BME280;5404;42.656;23.336;2022-07-17T05:54:42;95338.75;;;23.93;92.06
10706;BME280;5404;42.656;23.336;2022-07-17T05:57:07;95326.50;;;23.80;97.89
10706;BME280;5404;42.656;23.336;2022-07-17T05:59:33;95326.56;;;23.83;94.13
10706;BME280;5404;42.656;23.336;2022-07-17T06:01:59;95340.28;;;23.90;92.45
10706;BME280;5404;42.656;23.336;2022-07-17T06:04:25;95338.38;;;23.94;92.24
10706;BME280;5404;42.656;23.336;2022-07-17T06:06:50;95334.63;;;23.99;94.68
10706;BME280;5404;42.656;23.336;2022-07-17T06:09:16;95330.22;;;23.94;94.74
10706;BME280;5404;42.656;23.336;2022-07-17T06:11:41;95336.22;;;24.03;93.21
10706;BME280;5404;42.656;23.336;2022-07-17T06:14:07;95338.69;;;24.12;97.59
10706;BME280;5404;42.656;23.336;2022-07-17T06:16:32;95347.28;;;24.14;95.03
10706;BME280;5404;42.656;23.336;2022-07-17T06:18:58;95346.31;;;24.03;96.37
10706;BME280;5404;42.656;23.336;2022-07-17T06:21:23;95350.84;;;24.18;99.14
10706;BME280;5404;42.656;23.336;2022-07-17T06:23:48;95351.63;;;24.18;92.45
10706;BME280;5404;42.656;23.336;2022-07-17T06:26:14;95350.31;;;24.35;97.61
10706;BME280;5404;42.656;23.336;2022-07-17T06:28:39;95354.06;;;24.01;93.93
10706;BME280;5404;42.656;23.336;2022-07-17T06:31:06;95333.88;;;24.02;96.65
10706;BME280;5404;42.656;23.336;2022-07-17T06:33:31;95350.94;;;24.25;94.66
10706;BME280;5404;42.656;23.336;2022-07-17T06:35:56;95354.44;;;24.26;93.41
10706;BME280;5404;42.656;23.336;2022-07-17T06:38:22;95347.34;;;24.17;92.29
10706;BME280;5404;42.656;23.336;2022-07-17T06:40:47;95351.72;;;24.26;96.07
10706;BME280;5404;42.656;23.336;2022-07-17T06:43:13;95345.81;;;24.20;93.47
10706;BME280;5404;42.656;23.336;2022-07-17T06:45:38;95339.97;;;24.18;96.98
10706;BME280;5404;42.656;23.336;2022-07-17T06:48:04;95339.91;;;24.14;95.75
10706;BME280;5404;42.656;23.336;2022-07-17T06:50:30;95343.56;;;24.26;94.16
10706;BME280;5404;42.656;23.336;2022-07-17T06:52:55;95348.47;;;24.43;98.76
10706;BME280;5404;42.656;23.336;2022-07-17T06:55:23;95348.97;;;24.52;95.82
10706;BME280;5404;42.656;23.336;2022-07-17T06:57:49;95366.22;;;24.59;93.39
10706;BME280;5404;42.656;23.336;2022-07-17T07:00:14;95355.22;;;24.52;93.16
10706;BME280;5404;42.656;23.336;2022-07-17T07:02:40;95348.69;;;24.60;93.91
10706;BME280;5404;42.656;23.336;2022-07-17T07:05:06;95355.47;;;24.70;90.93
10706;BME280;5404;42.656;23.336;2022-07-17T07:07:31;95359.34;;;24.69;95.74
10706;BME280;5404;42.656;23.336;2022-07-17T07:09:57;95358.75;;;24.82;91.63
10706;BME280;5404;42.656;23.336;2022-07-17T07:12:22;95357.94;;;24.78;88.27
10706;BME280;5404;42.656;23.336;2022-07-17T07:14:48;95360.31;;;24.83;95.69
10706;BME280;5404;42.656;23.336;2022-07-17T07:17:13;95365.78;;;24.83;92.88
10706;BME280;5404;42.656;23.336;2022-07-17T07:19:38;95360.41;;;24.90;91.10
10706;BME280;5404;42.656;23.336;2022-07-17T07:22:04;95361.03;;;24.80;91.63
10706;BME280;5404;42.656;23.336;2022-07-17T07:24:29;95367.56;;;24.72;91.43
10706;BME280;5404;42.656;23.336;2022-07-17T07:26:55;95363.16;;;24.94;94.76
10706;BME280;5404;42.656;23.336;2022-07-17T07:29:20;95366.94;;;25.15;91.47
10706;BME280;5404;42.656;23.336;2022-07-17T07:31:46;95370.00;;;25.10;90.14
10706;BME280;5404;42.656;23.336;2022-07-17T07:34:13;95365.06;;;25.23;90.98
10706;BME280;5404;42.656;23.336;2022-07-17T07:36:38;95371.75;;;25.29;87.37
10706;BME280;5404;42.656;23.336;2022-07-17T07:39:04;95368.81;;;25.11;85.09
10706;BME280;5404;42.656;23.336;2022-07-17T07:41:29;95364.88;;;25.05;85.07
10706;BME280;5404;42.656;23.336;2022-07-17T07:43:55;95366.63;;;25.24;85.77
10706;BME280;5404;42.656;23.336;2022-07-17T07:46:20;95360.03;;;25.28;86.95
10706;BME280;5404;42.656;23.336;2022-07-17T07:48:46;95368.09;;;25.51;86.53
10706;BME280;5404;42.656;23.336;2022-07-17T07:51:11;95362.19;;;25.46;84.45
10706;BME280;5404;42.656;23.336;2022-07-17T07:53:37;95363.03;;;25.50;82.44
10706;BME280;5404;42.656;23.336;2022-07-17T07:56:03;95361.00;;;25.43;80.92
10706;BME280;5404;42.656;23.336;2022-07-17T07:58:29;95367.31;;;25.47;79.41
10706;BME280;5404;42.656;23.336;2022-07-17T08:00:54;95357.50;;;25.43;78.19
10706;BME280;5404;42.656;23.336;2022-07-17T08:03:19;95367.94;;;25.74;78.89
10706;BME280;5404;42.656;23.336;2022-07-17T08:05:45;95349.22;;;25.76;75.07
10706;BME280;5404;42.656;23.336;2022-07-17T08:08:10;95362.16;;;25.82;76.03
10706;BME280;5404;42.656;23.336;2022-07-17T08:10:36;95359.41;;;25.82;74.09
10706;BME280;5404;42.656;23.336;2022-07-17T08:13:02;95353.56;;;25.84;77.11
10706;BME280;5404;42.656;23.336;2022-07-17T08:15:27;95358.69;;;25.89;73.83
10706;BME280;5404;42.656;23.336;2022-07-17T08:17:53;95364.75;;;26.12;76.19
10706;BME280;5404;42.656;23.336;2022-07-17T08:20:20;95366.47;;;26.34;76.22
10706;BME280;5404;42.656;23.336;2022-07-17T08:22:47;95367.59;;;26.26;72.24
10706;BME280;5404;42.656;23.336;2022-07-17T08:25:13;95368.13;;;26.49;74.73
10706;BME280;5404;42.656;23.336;2022-07-17T08:27:40;95360.34;;;26.55;74.41
10706;BME280;5404;42.656;23.336;2022-07-17T08:30:08;95363.66;;;26.81;69.43
10706;BME280;5404;42.656;23.336;2022-07-17T08:32:34;95353.09;;;26.83;69.98
10706;BME280;5404;42.656;23.336;2022-07-17T08:35:00;95363.72;;;27.02;70.93
10706;BME280;5404;42.656;23.336;2022-07-17T08:37:26;95370.44;;;27.22;68.90
10706;BME280;5404;42.656;23.336;2022-07-17T08:39:51;95368.78;;;27.04;68.77
10706;BME280;5404;42.656;23.336;2022-07-17T08:42:17;95364.44;;;26.85;62.25
10706;BME280;5404;42.656;23.336;2022-07-17T08:44:43;95371.44;;;26.79;58.82
10706;BME280;5404;42.656;23.336;2022-07-17T08:47:10;95371.84;;;26.81;60.22
10706;BME280;5404;42.656;23.336;2022-07-17T08:49:41;95356.31;;;27.06;62.89
10706;BME280;5404;42.656;23.336;2022-07-17T08:52:09;95370.69;;;26.82;62.15
10706;BME280;5404;42.656;23.336;2022-07-17T08:54:35;95371.53;;;26.97;62.43
10706;BME280;5404;42.656;23.336;2022-07-17T08:57:02;95367.63;;;27.01;61.96
10706;BME280;5404;42.656;23.336;2022-07-17T08:59:28;95361.38;;;27.04;61.83
10706;BME280;5404;42.656;23.336;2022-07-17T09:01:54;95363.06;;;27.30;61.46
10706;BME280;5404;42.656;23.336;2022-07-17T09:04:19;95360.34;;;27.40;62.42
10706;BME280;5404;42.656;23.336;2022-07-17T09:06:45;95347.84;;;27.46;60.12
10706;BME280;5404;42.656;23.336;2022-07-17T09:09:13;95352.16;;;27.47;59.39
10706;BME280;5404;42.656;23.336;2022-07-17T09:11:47;95341.97;;;27.44;57.91
10706;BME280;5404;42.656;23.336;2022-07-17T09:14:14;95352.97;;;27.83;58.71
10706;BME280;5404;42.656;23.336;2022-07-17T09:22:02;95338.38;;;33.15;39.53
10706;BME280;5404;42.656;23.336;2022-07-17T09:24:38;95345.59;;;34.32;37.16
10706;BME280;5404;42.656;23.336;2022-07-17T09:27:05;95350.38;;;34.92;34.57
10706;BME280;5404;42.656;23.336;2022-07-17T09:29:31;95350.88;;;35.16;34.97
10706;BME280;5404;42.656;23.336;2022-07-17T09:31:56;95353.75;;;37.53;32.02
10706;BME280;5404;42.656;23.336;2022-07-17T09:34:21;95344.47;;;38.93;27.51
10706;BME280;5404;42.656;23.336;2022-07-17T09:37:00;95344.72;;;38.01;26.54
10706;BME280;5404;42.656;23.336;2022-07-17T09:39:36;95352.88;;;36.79;27.57
10706;BME280;5404;42.656;23.336;2022-07-17T09:42:02;95352.97;;;37.74;27.20
10706;BME280;5404;42.656;23.336;2022-07-17T09:44:28;95345.47;;;37.93;27.27
10706;BME280;5404;42.656;23.336;2022-07-17T09:46:54;95360.09;;;36.89;27.88
10706;BME280;5404;42.656;23.336;2022-07-17T09:49:19;95353.94;;;37.59;27.10
10706;BME280;5404;42.656;23.336;2022-07-17T09:51:48;95347.44;;;35.53;28.68
10706;BME280;5404;42.656;23.336;2022-07-17T09:54:15;95343.00;;;37.95;26.47
10706;BME280;5404;42.656;23.336;2022-07-17T09:56:47;95354.44;;;37.35;26.93
10706;BME280;5404;42.656;23.336;2022-07-17T09:59:15;95352.22;;;36.75;27.40
10706;BME280;5404;42.656;23.336;2022-07-17T10:01:43;95354.00;;;36.69;27.52
10706;BME280;5404;42.656;23.336;2022-07-17T10:04:10;95341.88;;;37.31;26.49
10706;BME280;5404;42.656;23.336;2022-07-17T10:06:36;95348.72;;;38.31;25.89
10706;BME280;5404;42.656;23.336;2022-07-17T10:09:02;95356.97;;;36.27;27.62
10706;BME280;5404;42.656;23.336;2022-07-17T10:11:32;95359.41;;;38.02;26.56
10706;BME280;5404;42.656;23.336;2022-07-17T10:14:09;95347.69;;;38.07;26.03
10706;BME280;5404;42.656;23.336;2022-07-17T10:16:36;95352.69;;;38.88;25.77
10706;BME280;5404;42.656;23.336;2022-07-17T10:21:58;95345.88;;;36.27;28.03
10706;BME280;5404;42.656;23.336;2022-07-17T10:24:26;95345.78;;;35.56;28.84
10706;BME280;5404;42.656;23.336;2022-07-17T10:26:52;95323.97;;;36.89;27.41
10706;BME280;5404;42.656;23.336;2022-07-17T10:29:37;95329.16;;;39.16;24.79
10706;BME280;5404;42.656;23.336;2022-07-17T10:32:13;95319.94;;;36.68;26.65
10706;BME280;5404;42.656;23.336;2022-07-17T10:34:59;95334.53;;;39.37;24.75
10706;BME280;5404;42.656;23.336;2022-07-17T10:37:38;95312.84;;;39.92;24.41
10706;BME280;5404;42.656;23.336;2022-07-17T10:45:36;95334.13;;;35.73;29.06
10706;BME280;5404;42.656;23.336;2022-07-17T10:48:07;95330.22;;;36.33;28.28
10706;BME280;5404;42.656;23.336;2022-07-17T10:55:35;95331.72;;;35.75;28.56
10706;BME280;5404;42.656;23.336;2022-07-17T10:58:01;95313.84;;;36.01;28.54
10706;BME280;5404;42.656;23.336;2022-07-17T11:00:27;95319.63;;;37.83;26.83
10706;BME280;5404;42.656;23.336;2022-07-17T11:02:53;95316.91;;;36.28;27.63
10706;BME280;5404;42.656;23.336;2022-07-17T11:05:18;95313.25;;;35.31;29.24
10706;BME280;5404;42.656;23.336;2022-07-17T11:07:52;95311.63;;;35.71;28.92
10706;BME280;5404;42.656;23.336;2022-07-17T11:10:18;95316.38;;;35.04;30.27
10706;BME280;5404;42.656;23.336;2022-07-17T11:12:44;95310.06;;;33.82;31.33
10706;BME280;5404;42.656;23.336;2022-07-17T11:15:09;95301.25;;;34.64;29.94
10706;BME280;5404;42.656;23.336;2022-07-17T11:17:35;95300.16;;;33.49;32.03
10706;BME280;5404;42.656;23.336;2022-07-17T11:20:02;95297.88;;;32.69;34.03
10706;BME280;5404;42.656;23.336;2022-07-17T11:22:28;95299.84;;;32.69;33.57
10706;BME280;5404;42.656;23.336;2022-07-17T11:24:54;95291.19;;;31.51;35.58
10706;BME280;5404;42.656;23.336;2022-07-17T11:27:25;95303.22;;;31.64;35.90
10706;BME280;5404;42.656;23.336;2022-07-17T11:29:52;95297.19;;;31.73;37.52
10706;BME280;5404;42.656;23.336;2022-07-17T11:32:18;95298.75;;;31.17;37.82
10706;BME280;5404;42.656;23.336;2022-07-17T11:34:44;95283.50;;;31.13;39.39
10706;BME280;5404;42.656;23.336;2022-07-17T11:37:10;95286.47;;;30.21;40.38
10706;BME280;5404;42.656;23.336;2022-07-17T11:39:47;95286.06;;;30.22;40.02
10706;BME280;5404;42.656;23.336;2022-07-17T11:42:19;95282.34;;;30.76;40.41
10706;BME280;5404;42.656;23.336;2022-07-17T11:44:46;95279.75;;;30.96;38.34
10706;BME280;5404;42.656;23.336;2022-07-17T11:47:25;95266.13;;;31.16;39.45
10706;BME280;5404;42.656;23.336;2022-07-17T11:50:13;95259.94;;;31.61;37.68
10706;BME280;5404;42.656;23.336;2022-07-17T11:52:44;95272.84;;;31.68;38.14
10706;BME280;5404;42.656;23.336;2022-07-17T11:55:11;95270.25;;;31.80;37.13
10706;BME280;5404;42.656;23.336;2022-07-17T11:57:42;95261.00;;;31.44;39.25
10706;BME280;5404;42.656;23.336;2022-07-17T12:00:09;95255.38;;;31.51;39.16
10706;BME280;5404;42.656;23.336;2022-07-17T12:02:37;95245.75;;;31.86;38.13
10706;BME280;5404;42.656;23.336;2022-07-17T12:05:03;95265.16;;;32.06;38.78
10706;BME280;5404;42.656;23.336;2022-07-17T12:07:47;95254.00;;;31.89;36.78
10706;BME280;5404;42.656;23.336;2022-07-17T12:10:16;95261.66;;;32.02;37.87
10706;BME280;5404;42.656;23.336;2022-07-17T12:13:05;95258.66;;;31.69;39.26
10706;BME280;5404;42.656;23.336;2022-07-17T12:16:00;95256.31;;;31.68;38.82
10706;BME280;5404;42.656;23.336;2022-07-17T12:18:28;95268.19;;;31.38;38.97
10706;BME280;5404;42.656;23.336;2022-07-17T12:20:57;95262.25;;;31.40;39.08
10706;BME280;5404;42.656;23.336;2022-07-17T12:23:33;95255.25;;;31.35;39.79
10706;BME280;5404;42.656;23.336;2022-07-17T12:26:25;95251.75;;;30.71;41.26
10706;BME280;5404;42.656;23.336;2022-07-17T12:28:51;95249.06;;;30.98;42.41
10706;BME280;5404;42.656;23.336;2022-07-17T12:31:18;95247.00;;;31.35;43.31
10706;BME280;5404;42.656;23.336;2022-07-17T12:33:45;95250.44;;;30.82;43.18
10706;BME280;5404;42.656;23.336;2022-07-17T12:36:11;95254.28;;;30.92;43.01
10706;BME280;5404;42.656;23.336;2022-07-17T12:38:36;95253.38;;;30.99;43.88
10706;BME280;5404;42.656;23.336;2022-07-17T12:41:02;95246.94;;;30.82;44.17
10706;BME280;5404;42.656;23.336;2022-07-17T12:43:28;95249.94;;;30.91;45.25
10706;BME280;5404;42.656;23.336;2022-07-17T12:45:53;95238.06;;;30.34;45.36
10706;BME280;5404;42.656;23.336;2022-07-17T12:48:19;95246.88;;;30.15;46.81
10706;BME280;5404;42.656;23.336;2022-07-17T12:50:44;95248.16;;;29.59;50.63
10706;BME280;5404;42.656;23.336;2022-07-17T12:53:11;95250.69;;;29.36;50.53
10706;BME280;5404;42.656;23.336;2022-07-17T12:55:36;95238.63;;;29.74;52.36
10706;BME280;5404;42.656;23.336;2022-07-17T12:58:03;95243.34;;;30.51;51.50
10706;BME280;5404;42.656;23.336;2022-07-17T13:00:29;95244.44;;;30.24;53.07
10706;BME280;5404;42.656;23.336;2022-07-17T13:02:54;95243.16;;;29.91;53.06
10706;BME280;5404;42.656;23.336;2022-07-17T13:05:20;95228.47;;;30.08;51.67
10706;BME280;5404;42.656;23.336;2022-07-17T13:07:45;95215.50;;;30.09;55.11
10706;BME280;5404;42.656;23.336;2022-07-17T13:10:11;95233.28;;;30.38;53.77
10706;BME280;5404;42.656;23.336;2022-07-17T13:12:36;95239.78;;;30.54;52.56